createdAt,value
2024-02-14T00:00:33.852Z,21.50
2024-02-14T00:03:00.575Z,20.60
2024-02-14T00:05:27.395Z,16.30
2024-02-14T00:07:54.313Z,15.80
2024-02-14T00:10:21.666Z,16.30
2024-02-14T00:12:48.411Z,16.20
2024-02-14T00:15:15.254Z,14.80
2024-02-14T00:17:42.118Z,14.60
2024-02-14T00:20:10.045Z,14.10
2024-02-14T00:22:36.737Z,13.50
2024-02-14T00:25:03.886Z,12.90
2024-02-14T00:27:30.637Z,13.20
2024-02-14T00:29:57.347Z,13.90
2024-02-14T00:32:24.260Z,13.70
2024-02-14T00:34:51.590Z,12.80
2024-02-14T00:37:20.365Z,12.60
2024-02-14T00:39:47.049Z,12.80
2024-02-14T00:42:13.904Z,14.00
2024-02-14T00:44:40.599Z,14.50
2024-02-14T00:47:07.663Z,15.10
2024-02-14T00:49:37.736Z,14.90
2024-02-14T00:52:04.904Z,15.00
2024-02-14T00:54:31.876Z,15.70
2024-02-14T00:56:58.764Z,13.80
2024-02-14T00:59:25.694Z,12.20
2024-02-14T01:01:52.402Z,11.60
2024-02-14T01:04:19.144Z,14.00
2024-02-14T01:06:46.293Z,15.90
2024-02-14T01:09:13.176Z,11.90
2024-02-14T01:11:40.018Z,9.80
2024-02-14T01:14:06.844Z,9.80
2024-02-14T01:16:33.588Z,9.60
2024-02-14T01:19:00.541Z,9.90
2024-02-14T01:21:27.397Z,8.60
2024-02-14T01:23:54.075Z,8.30
2024-02-14T01:26:20.785Z,8.70
2024-02-14T01:28:47.427Z,8.30
2024-02-14T01:31:14.175Z,8.30
2024-02-14T01:33:41.044Z,9.80
2024-02-14T01:36:07.919Z,9.10
2024-02-14T01:38:34.653Z,8.80
2024-02-14T01:41:01.397Z,9.70
2024-02-14T01:43:28.161Z,8.60
2024-02-14T01:45:55.086Z,8.40
2024-02-14T01:48:21.970Z,8.30
2024-02-14T01:50:49.148Z,7.70
2024-02-14T01:53:16.091Z,8.20
2024-02-14T01:55:42.787Z,7.60
2024-02-14T01:58:09.960Z,7.30
2024-02-14T02:00:37.362Z,7.30
2024-02-14T02:03:04.740Z,6.70
2024-02-14T02:05:31.799Z,7.10
2024-02-14T02:07:59.093Z,37.10
2024-02-14T02:10:26.117Z,31.40
2024-02-14T02:12:59.453Z,27.30
2024-02-14T02:15:26.207Z,19.90
2024-02-14T02:17:53.088Z,18.30
2024-02-14T02:20:20.467Z,16.70
2024-02-14T02:22:48.513Z,18.10
2024-02-14T02:25:15.765Z,18.20
2024-02-14T02:27:42.518Z,16.10
2024-02-14T02:30:09.577Z,8.70
2024-02-14T02:32:36.438Z,17.60
2024-02-14T02:35:03.411Z,19.40
2024-02-14T02:37:30.237Z,20.40
2024-02-14T02:39:59.648Z,17.90
2024-02-14T02:42:26.678Z,10.50
2024-02-14T02:44:53.598Z,9.70
2024-02-14T02:47:20.389Z,10.30
2024-02-14T02:49:47.757Z,8.50
2024-02-14T02:52:15.059Z,9.00
2024-02-14T02:54:42.230Z,8.30
2024-02-14T02:57:09.442Z,7.80
2024-02-14T02:59:37.342Z,7.50
2024-02-14T03:02:04.966Z,8.00
2024-02-14T03:04:45.340Z,8.10
2024-02-14T03:07:16.610Z,8.90
2024-02-14T03:09:43.682Z,8.20
2024-02-14T03:12:11.353Z,8.70
2024-02-14T03:14:38.721Z,6.20
2024-02-14T03:17:06.017Z,8.30
2024-02-14T03:19:33.014Z,8.70
2024-02-14T03:21:59.816Z,7.90
2024-02-14T03:24:26.570Z,9.00
2024-02-14T03:26:53.735Z,10.80
2024-02-14T03:29:21.485Z,9.40
2024-02-14T03:31:49.039Z,7.30
2024-02-14T03:34:16.307Z,6.30
2024-02-14T03:36:43.255Z,7.40
2024-02-14T03:39:10.306Z,7.70
2024-02-14T03:41:37.184Z,8.50
2024-02-14T03:44:04.144Z,7.70
2024-02-14T03:46:31.180Z,8.70
2024-02-14T03:48:58.105Z,8.10
2024-02-14T03:51:25.484Z,8.50
2024-02-14T03:53:52.663Z,7.80
2024-02-14T03:56:19.391Z,8.20
2024-02-14T03:58:46.147Z,8.80
2024-02-14T04:01:13.323Z,8.80
2024-02-14T04:03:40.790Z,9.20
2024-02-14T04:06:07.631Z,9.90
2024-02-14T04:08:34.657Z,11.50
2024-02-14T04:11:01.798Z,12.00
2024-02-14T04:13:28.691Z,12.00
2024-02-14T04:15:55.394Z,12.80
2024-02-14T04:18:22.303Z,14.80
2024-02-14T04:20:49.272Z,13.20
2024-02-14T04:23:16.164Z,12.00
2024-02-14T04:25:43.124Z,14.20
2024-02-14T04:28:10.063Z,12.80
2024-02-14T04:30:37.305Z,13.40
2024-02-14T04:33:04.323Z,13.70
2024-02-14T04:35:31.580Z,14.30
2024-02-14T04:37:58.600Z,13.50
2024-02-14T04:40:25.438Z,16.00
2024-02-14T04:42:52.184Z,21.30
2024-02-14T04:45:19.739Z,21.50
2024-02-14T04:47:46.673Z,22.40
2024-02-14T04:50:13.533Z,22.00
2024-02-14T04:52:40.289Z,20.30
2024-02-14T04:55:07.783Z,19.10
2024-02-14T04:57:34.683Z,18.50
2024-02-14T05:00:01.509Z,19.40
2024-02-14T05:02:28.299Z,22.60
2024-02-14T05:04:55.244Z,13.70
2024-02-14T05:07:21.986Z,11.50
2024-02-14T05:09:48.745Z,10.30
2024-02-14T05:12:15.520Z,7.00
2024-02-14T05:14:42.556Z,7.30
2024-02-14T05:17:09.438Z,6.90
2024-02-14T05:19:36.387Z,7.40
2024-02-14T05:22:03.391Z,7.80
2024-02-14T05:24:30.393Z,7.00
2024-02-14T05:26:57.234Z,7.40
2024-02-14T05:29:23.929Z,7.30
2024-02-14T05:31:50.685Z,7.60
2024-02-14T05:34:17.846Z,8.20
2024-02-14T05:36:44.675Z,8.90
2024-02-14T05:39:11.839Z,7.80
2024-02-14T05:41:39.072Z,12.60
2024-02-14T05:44:05.850Z,12.20
2024-02-14T05:46:32.790Z,16.00
2024-02-14T05:48:59.601Z,19.20
2024-02-14T05:51:26.739Z,16.90
2024-02-14T05:53:53.525Z,19.10
2024-02-14T05:56:20.385Z,15.80
2024-02-14T05:58:47.134Z,15.20
2024-02-14T06:01:13.902Z,18.70
2024-02-14T06:03:43.234Z,18.40
2024-02-14T06:06:10.306Z,21.50
2024-02-14T06:08:37.022Z,20.70
2024-02-14T06:11:03.927Z,16.80
2024-02-14T06:13:30.767Z,17.30
2024-02-14T06:15:57.413Z,16.60
2024-02-14T06:18:24.431Z,16.40
2024-02-14T06:20:51.242Z,18.90
2024-02-14T06:23:17.903Z,16.90
2024-02-14T06:25:44.585Z,17.30
2024-02-14T06:28:11.351Z,16.60
2024-02-14T06:30:38.085Z,16.90
2024-02-14T06:33:05.263Z,16.20
2024-02-14T06:35:32.591Z,14.50
2024-02-14T06:38:04.203Z,12.10
2024-02-14T06:40:32.340Z,13.70
2024-02-14T06:42:59.395Z,13.20
2024-02-14T06:45:27.362Z,17.70
2024-02-14T06:47:54.174Z,16.50
2024-02-14T06:50:21.245Z,19.00
2024-02-14T06:52:47.880Z,16.30
2024-02-14T06:55:14.739Z,20.10
2024-02-14T06:57:41.499Z,20.30
2024-02-14T07:00:10.149Z,19.00
2024-02-14T07:02:37.170Z,17.60
2024-02-14T07:05:04.076Z,18.30
2024-02-14T07:07:31.034Z,22.00
2024-02-14T07:09:57.784Z,21.40
2024-02-14T07:12:24.480Z,18.50
2024-02-14T07:14:51.337Z,18.20
2024-02-14T07:17:18.141Z,17.80
2024-02-14T07:19:44.767Z,17.00
2024-02-14T07:22:11.423Z,19.50
2024-02-14T07:24:38.172Z,21.10
2024-02-14T07:27:05.574Z,20.20
2024-02-14T07:29:32.517Z,20.50
2024-02-14T07:32:03.000Z,17.30
2024-02-14T07:34:29.808Z,17.00
2024-02-14T07:36:56.603Z,18.30
2024-02-14T07:39:23.287Z,18.60
2024-02-14T07:41:50.041Z,18.00
2024-02-14T07:44:16.775Z,15.40
2024-02-14T07:46:43.626Z,14.70
2024-02-14T07:49:10.389Z,15.50
2024-02-14T07:51:37.640Z,16.00
2024-02-14T07:54:08.002Z,14.20
2024-02-14T07:56:34.828Z,15.10
2024-02-14T07:59:01.645Z,14.60
2024-02-14T08:01:28.389Z,15.60
2024-02-14T08:03:55.797Z,16.50
2024-02-14T08:06:22.738Z,14.40
2024-02-14T08:08:49.453Z,14.10
2024-02-14T08:11:16.488Z,15.30
2024-02-14T08:13:43.257Z,10.60
2024-02-14T08:16:09.988Z,10.90
2024-02-14T08:18:36.761Z,10.60
2024-02-14T08:21:04.012Z,10.20
2024-02-14T08:23:30.890Z,9.90
2024-02-14T08:25:57.577Z,8.10
2024-02-14T08:28:24.641Z,7.00
2024-02-14T08:30:51.280Z,7.70
2024-02-14T08:33:18.192Z,7.00
2024-02-14T08:35:45.049Z,9.60
2024-02-14T08:38:12.131Z,8.20
2024-02-14T08:40:38.935Z,6.00
2024-02-14T08:43:06.006Z,4.80
2024-02-14T08:45:33.204Z,6.40
2024-02-14T08:48:00.565Z,2.00
2024-02-14T08:50:28.041Z,3.40
2024-02-14T08:52:54.764Z,3.90
2024-02-14T08:55:21.403Z,3.50
2024-02-14T08:57:48.138Z,3.10
2024-02-14T09:00:15.442Z,3.60
2024-02-14T09:02:42.164Z,4.00
2024-02-14T09:05:09.296Z,4.10
2024-02-14T09:07:35.941Z,3.60
2024-02-14T09:10:02.682Z,4.10
2024-02-14T09:12:29.427Z,3.20
2024-02-14T09:14:56.209Z,4.40
2024-02-14T09:17:23.021Z,6.20
2024-02-14T09:19:49.866Z,5.50
2024-02-14T09:22:16.710Z,1.20
2024-02-14T09:24:43.570Z,2.80
2024-02-14T09:27:11.650Z,1.40
2024-02-14T09:29:45.604Z,1.60
2024-02-14T09:32:12.501Z,1.70
2024-02-14T09:34:39.247Z,1.70
2024-02-14T09:37:06.082Z,2.10
2024-02-14T09:39:32.751Z,1.90
2024-02-14T09:42:00.718Z,1.60
2024-02-14T09:44:29.529Z,2.00
2024-02-14T09:46:57.811Z,1.90
2024-02-14T09:49:25.864Z,2.80
2024-02-14T09:51:53.746Z,2.40
2024-02-14T09:54:21.170Z,2.00
2024-02-14T09:56:54.473Z,1.90
2024-02-14T09:59:23.607Z,2.30
2024-02-14T10:01:50.342Z,2.10
2024-02-14T10:04:17.230Z,2.20
2024-02-14T10:06:44.094Z,2.70
2024-02-14T10:09:11.020Z,2.00
2024-02-14T10:11:39.098Z,2.50
2024-02-14T10:14:06.539Z,2.30
2024-02-14T10:16:33.291Z,2.60
2024-02-14T10:19:00.621Z,2.50
2024-02-14T10:21:27.782Z,2.60
2024-02-14T10:23:54.748Z,2.60
2024-02-14T10:26:21.882Z,2.40
2024-02-14T10:28:50.424Z,2.40
2024-02-14T10:31:17.931Z,2.50
2024-02-14T10:33:45.026Z,2.90
2024-02-14T10:36:14.218Z,2.70
2024-02-14T10:38:41.895Z,2.70
2024-02-14T10:41:11.043Z,2.30
2024-02-14T10:43:41.404Z,1.80
2024-02-14T10:46:13.819Z,2.00
2024-02-14T10:48:41.178Z,1.80
2024-02-14T10:51:09.996Z,2.00
2024-02-14T10:53:40.722Z,2.20
2024-02-14T10:56:08.637Z,2.70
2024-02-14T10:58:36.296Z,2.60
2024-02-14T11:01:03.732Z,3.30
2024-02-14T11:03:30.798Z,2.80
2024-02-14T11:06:03.685Z,2.20
2024-02-14T11:08:31.762Z,2.90
2024-02-14T11:11:01.312Z,3.30
2024-02-14T11:13:29.819Z,2.40
2024-02-14T11:15:58.510Z,2.80
2024-02-14T11:18:29.946Z,2.70
2024-02-14T11:20:57.072Z,2.30
2024-02-14T11:23:24.430Z,3.00
2024-02-14T11:25:51.376Z,2.80
2024-02-14T11:28:20.585Z,2.70
2024-02-14T11:30:47.541Z,2.50
2024-02-14T11:33:15.170Z,2.40
2024-02-14T11:35:43.303Z,2.30
2024-02-14T11:38:11.117Z,2.30
2024-02-14T11:40:38.721Z,2.40
2024-02-14T11:43:06.299Z,2.80
2024-02-14T11:45:33.328Z,2.70
2024-02-14T11:48:00.320Z,2.70
2024-02-14T11:50:27.232Z,2.90
2024-02-14T11:52:54.087Z,3.10
2024-02-14T11:55:29.260Z,2.80
2024-02-14T11:57:55.970Z,2.90
2024-02-14T12:00:23.021Z,2.90
2024-02-14T12:02:50.262Z,3.00
2024-02-14T12:05:18.380Z,2.90
2024-02-14T12:07:45.567Z,2.50
2024-02-14T12:10:12.577Z,3.50
2024-02-14T12:12:39.650Z,3.40
2024-02-14T12:15:06.974Z,3.10
2024-02-14T12:17:35.840Z,4.10
2024-02-14T12:20:13.053Z,3.90
2024-02-14T12:22:40.005Z,2.90
2024-02-14T12:25:08.958Z,2.90
2024-02-14T12:27:35.754Z,2.60
2024-02-14T12:30:09.289Z,3.00
2024-02-14T12:32:36.411Z,2.50
2024-02-14T12:35:03.386Z,2.50
2024-02-14T12:37:30.097Z,2.80
2024-02-14T12:39:56.756Z,2.30
2024-02-14T12:42:23.511Z,2.70
2024-02-14T12:44:50.477Z,2.90
2024-02-14T12:47:17.412Z,2.20
2024-02-14T12:49:44.236Z,2.80
2024-02-14T12:52:11.711Z,2.40
2024-02-14T12:54:38.449Z,2.60
2024-02-14T12:57:05.636Z,2.80
2024-02-14T12:59:32.631Z,2.60
2024-02-14T13:01:59.454Z,2.60
2024-02-14T13:04:26.397Z,2.90
2024-02-14T13:06:53.254Z,2.90
2024-02-14T13:09:20.248Z,2.40
2024-02-14T13:11:47.032Z,2.30
2024-02-14T13:14:13.958Z,2.40
2024-02-14T13:16:41.044Z,2.50
2024-02-14T13:19:07.992Z,2.10
2024-02-14T13:21:34.981Z,2.50
2024-02-14T13:24:01.884Z,2.50
2024-02-14T13:26:28.686Z,2.20
2024-02-14T13:28:55.493Z,2.70
2024-02-14T13:31:22.284Z,2.60
2024-02-14T13:33:49.232Z,2.60
2024-02-14T13:36:16.283Z,2.80
2024-02-14T13:38:43.160Z,2.50
2024-02-14T13:41:09.729Z,2.50
2024-02-14T13:43:36.421Z,2.60
2024-02-14T13:46:03.234Z,2.50
2024-02-14T13:48:30.069Z,2.80
2024-02-14T13:50:57.003Z,2.30
2024-02-14T13:53:23.715Z,2.90
2024-02-14T13:55:51.122Z,2.50
2024-02-14T13:58:17.738Z,2.90
2024-02-14T14:00:44.561Z,2.60
2024-02-14T14:03:11.456Z,2.50
2024-02-14T14:05:38.655Z,2.30
2024-02-14T14:08:06.051Z,2.20
2024-02-14T14:10:32.729Z,2.50
2024-02-14T14:12:59.441Z,2.60
2024-02-14T14:15:26.119Z,2.30
2024-02-14T14:17:53.358Z,2.30
2024-02-14T14:20:21.106Z,2.50
2024-02-14T14:22:48.250Z,2.60
2024-02-14T14:25:15.265Z,2.40
2024-02-14T14:27:42.166Z,2.50
2024-02-14T14:30:09.471Z,2.90
2024-02-14T14:32:36.469Z,2.70
2024-02-14T14:35:03.567Z,2.80
2024-02-14T14:37:30.391Z,4.20
2024-02-14T14:39:57.048Z,5.90
2024-02-14T14:42:23.803Z,5.90
2024-02-14T14:44:51.349Z,5.40
2024-02-14T14:47:18.126Z,5.70
2024-02-14T14:49:44.883Z,4.60
2024-02-14T14:52:11.621Z,4.80
2024-02-14T14:54:38.513Z,4.60
2024-02-14T14:57:05.714Z,4.90
2024-02-14T14:59:32.656Z,5.00
2024-02-14T15:01:59.567Z,4.90
2024-02-14T15:04:26.467Z,5.90
2024-02-14T15:06:53.408Z,7.00
2024-02-14T15:09:20.279Z,6.20
2024-02-14T15:11:47.551Z,8.20
2024-02-14T15:14:14.236Z,6.80
2024-02-14T15:16:40.937Z,6.80
2024-02-14T15:19:07.849Z,5.20
2024-02-14T15:21:34.666Z,5.50
2024-02-14T15:24:01.501Z,6.20
2024-02-14T15:26:28.325Z,6.70
2024-02-14T15:28:54.963Z,12.00
2024-02-14T15:31:21.823Z,10.50
2024-02-14T15:33:48.752Z,10.80
2024-02-14T15:36:15.575Z,10.10
2024-02-14T15:38:42.541Z,7.80
2024-02-14T15:41:09.119Z,9.20
2024-02-14T15:43:36.662Z,8.80
2024-02-14T15:46:03.839Z,6.30
2024-02-14T15:48:30.663Z,7.60
2024-02-14T15:50:57.568Z,8.30
2024-02-14T15:53:24.280Z,7.40
2024-02-14T15:55:51.100Z,8.30
2024-02-14T15:58:17.721Z,8.50
2024-02-14T16:00:44.527Z,7.40
2024-02-14T16:03:11.541Z,9.40
2024-02-14T16:05:38.760Z,11.70
2024-02-14T16:08:06.460Z,16.00
2024-02-14T16:10:33.159Z,213.30
2024-02-14T16:12:59.913Z,81.20
2024-02-14T16:15:39.247Z,268.10
2024-02-14T16:18:06.578Z,46.10
2024-02-14T16:20:33.510Z,17.90
2024-02-14T16:23:00.428Z,20.90
2024-02-14T16:25:27.148Z,20.70
2024-02-14T16:27:53.788Z,16.30
2024-02-14T16:30:20.621Z,27.90
2024-02-14T16:32:47.608Z,29.60
2024-02-14T16:35:14.593Z,34.80
2024-02-14T16:37:41.406Z,46.90
2024-02-14T16:40:08.947Z,47.20
2024-02-14T16:42:35.799Z,43.70
2024-02-14T16:45:02.823Z,39.30
2024-02-14T16:47:29.663Z,38.40
2024-02-14T16:49:56.482Z,52.60
2024-02-14T16:52:23.344Z,55.30
2024-02-14T16:54:50.086Z,42.30
2024-02-14T16:57:18.727Z,39.20
2024-02-14T16:59:47.624Z,29.20
2024-02-14T17:02:14.534Z,44.40
2024-02-14T17:04:41.455Z,46.70
2024-02-14T17:07:10.793Z,34.00
2024-02-14T17:09:38.547Z,38.60
2024-02-14T17:12:06.511Z,48.40
2024-02-14T17:14:34.634Z,63.50
2024-02-14T17:17:01.777Z,112.70
2024-02-14T17:19:28.784Z,85.10
2024-02-14T17:21:55.659Z,61.00
2024-02-14T17:24:22.877Z,74.60
2024-02-14T17:26:49.796Z,64.20
2024-02-14T17:29:16.593Z,64.30
2024-02-14T17:31:43.234Z,75.10
2024-02-14T17:34:10.032Z,159.10
2024-02-14T17:36:37.104Z,129.80
2024-02-14T17:39:04.010Z,57.80
2024-02-14T17:41:30.763Z,146.60
2024-02-14T17:43:57.705Z,95.10
2024-02-14T17:46:24.634Z,68.80
2024-02-14T17:48:51.571Z,69.80
2024-02-14T17:51:18.471Z,73.60
2024-02-14T17:53:45.582Z,62.80
2024-02-14T17:56:12.356Z,66.30
2024-02-14T17:58:39.104Z,70.90
2024-02-14T18:01:05.925Z,66.50
2024-02-14T18:03:32.764Z,75.90
2024-02-14T18:05:59.625Z,73.30
2024-02-14T18:08:26.867Z,73.20
2024-02-14T18:10:53.775Z,68.30
2024-02-14T18:13:20.966Z,66.80
2024-02-14T18:15:47.714Z,64.20
2024-02-14T18:18:14.822Z,62.60
2024-02-14T18:20:41.773Z,49.10
2024-02-14T18:23:08.721Z,55.50
2024-02-14T18:25:35.612Z,79.60
2024-02-14T18:28:02.347Z,73.60
2024-02-14T18:30:28.967Z,78.10
2024-02-14T18:32:55.867Z,89.50
2024-02-14T18:35:22.678Z,107.80
2024-02-14T18:37:49.492Z,99.70
2024-02-14T18:40:16.306Z,95.50
2024-02-14T18:42:43.031Z,88.30
2024-02-14T18:45:10.160Z,76.90
2024-02-14T18:47:37.454Z,66.20
2024-02-14T18:50:05.250Z,73.40
2024-02-14T18:52:31.953Z,72.90
2024-02-14T18:54:58.810Z,117.90
2024-02-14T18:57:25.619Z,103.30
2024-02-14T18:59:52.431Z,75.10
2024-02-14T19:02:19.140Z,83.70
2024-02-14T19:04:45.940Z,85.70
2024-02-14T19:07:12.730Z,77.90
2024-02-14T19:09:39.375Z,79.50
2024-02-14T19:12:06.739Z,85.40
2024-02-14T19:14:33.470Z,96.00
2024-02-14T19:17:00.214Z,101.50
2024-02-14T19:19:27.046Z,110.00
2024-02-14T19:21:53.916Z,114.00
2024-02-14T19:24:20.688Z,112.70
2024-02-14T19:26:47.427Z,105.60
2024-02-14T19:29:14.144Z,118.80
2024-02-14T19:31:41.001Z,126.20
2024-02-14T19:34:07.777Z,125.90
2024-02-14T19:36:34.581Z,125.20
2024-02-14T19:39:01.247Z,127.60
2024-02-14T19:41:27.867Z,117.10
2024-02-14T19:43:54.620Z,116.20
2024-02-14T19:46:21.263Z,111.40
2024-02-14T19:48:48.338Z,117.20
2024-02-14T19:51:15.232Z,112.00
2024-02-14T19:53:42.120Z,111.50
2024-02-14T19:56:09.055Z,105.30
2024-02-14T19:58:35.691Z,109.10
2024-02-14T20:01:02.479Z,105.80
2024-02-14T20:03:29.184Z,111.60
2024-02-14T20:05:55.875Z,109.20
2024-02-14T20:08:22.711Z,102.60
2024-02-14T20:10:49.425Z,96.60
2024-02-14T20:13:16.152Z,98.20
2024-02-14T20:15:42.924Z,117.50
2024-02-14T20:18:12.088Z,133.80
2024-02-14T20:20:41.317Z,156.80
2024-02-14T20:23:08.164Z,120.10
2024-02-14T20:25:35.049Z,91.20
2024-02-14T20:28:01.749Z,110.20
2024-02-14T20:30:28.499Z,108.00
2024-02-14T20:32:56.146Z,110.80
2024-02-14T20:35:22.984Z,117.90
2024-02-14T20:37:49.962Z,118.30
2024-02-14T20:40:16.828Z,120.20
2024-02-14T20:42:44.291Z,100.90
2024-02-14T20:45:11.247Z,105.70
2024-02-14T20:47:39.296Z,111.60
2024-02-14T20:50:07.186Z,133.10
2024-02-14T20:52:35.033Z,143.70
2024-02-14T20:55:01.921Z,132.90
2024-02-14T20:57:28.685Z,127.40
2024-02-14T20:59:55.484Z,122.70
2024-02-14T21:02:22.443Z,111.90
2024-02-14T21:04:49.243Z,106.00
2024-02-14T21:07:16.201Z,103.30
2024-02-14T21:09:43.909Z,97.90
2024-02-14T21:12:10.984Z,103.70
2024-02-14T21:14:38.655Z,107.50
2024-02-14T21:17:05.784Z,102.80
2024-02-14T21:19:32.807Z,97.80
2024-02-14T21:22:00.098Z,85.20
2024-02-14T21:24:26.839Z,93.20
2024-02-14T21:26:53.680Z,95.80
2024-02-14T21:29:20.531Z,92.60
2024-02-14T21:31:47.380Z,91.40
2024-02-14T21:34:14.421Z,85.30
2024-02-14T21:36:41.388Z,94.00
2024-02-14T21:39:08.191Z,110.30
2024-02-14T21:41:35.095Z,98.00
2024-02-14T21:44:02.028Z,102.90
2024-02-14T21:46:29.190Z,94.80
2024-02-14T21:48:59.356Z,92.50
2024-02-14T21:51:26.457Z,81.70
2024-02-14T21:53:53.343Z,86.60
2024-02-14T21:56:20.157Z,75.80
2024-02-14T21:58:47.531Z,75.50
2024-02-14T22:01:14.333Z,84.90
2024-02-14T22:03:41.110Z,73.50
2024-02-14T22:06:08.053Z,72.60
2024-02-14T22:08:35.148Z,70.20
2024-02-14T22:11:02.160Z,66.60
2024-02-14T22:13:28.905Z,59.20
2024-02-14T22:15:55.843Z,58.30
2024-02-14T22:18:22.868Z,52.10
2024-02-14T22:20:49.734Z,64.40
2024-02-14T22:23:16.607Z,66.50
2024-02-14T22:25:43.467Z,68.40
2024-02-14T22:28:10.287Z,71.30
2024-02-14T22:30:37.148Z,69.10
2024-02-14T22:33:05.087Z,65.80
2024-02-14T22:35:31.888Z,65.70
2024-02-14T22:37:58.750Z,65.10
2024-02-14T22:40:25.567Z,70.20
2024-02-14T22:42:52.317Z,70.90
2024-02-14T22:45:19.072Z,66.20
2024-02-14T22:47:45.775Z,60.80
2024-02-14T22:50:12.843Z,59.60
2024-02-14T22:52:39.540Z,60.90
2024-02-14T22:55:06.667Z,64.40
2024-02-14T22:57:33.408Z,65.60
2024-02-14T23:00:00.066Z,63.40
2024-02-14T23:02:26.844Z,64.30
2024-02-14T23:04:53.649Z,65.10
2024-02-14T23:07:20.421Z,65.20
2024-02-14T23:09:47.559Z,60.70
2024-02-14T23:12:14.559Z,64.00
2024-02-14T23:14:41.575Z,63.00
2024-02-14T23:17:08.348Z,62.50
2024-02-14T23:19:35.099Z,59.20
2024-02-14T23:22:02.104Z,60.30
2024-02-14T23:24:28.949Z,59.60
2024-02-14T23:26:55.750Z,60.10
2024-02-14T23:29:22.754Z,59.30
2024-02-14T23:31:49.492Z,61.70
2024-02-14T23:34:16.234Z,60.00
2024-02-14T23:36:43.186Z,55.20
2024-02-14T23:39:09.954Z,55.50
2024-02-14T23:41:36.728Z,55.10
2024-02-14T23:44:03.634Z,55.60
2024-02-14T23:46:30.841Z,54.50
2024-02-14T23:48:57.649Z,58.70
2024-02-14T23:51:24.484Z,57.90
2024-02-14T23:53:51.279Z,51.60
2024-02-14T23:56:17.987Z,54.80
2024-02-14T23:58:44.958Z,54.30
